WESTPORT MEDIA Westport In The Media

Enter your "Place, State", US Zip Code or ICAO:  

Nassau Airport, Bahamas

 Lat: 25.05N, Lon: 77.47W
ICAO Used: MYNN
Current Conditions
Updated: 9:00 AM GMT-5 THU OCT 23 2014
Sun & Moon Information
Rain
Rain
Temp: 23°C
Humidity: 88%
Wind Speed: CALM
Barometer: 1014 mb
Dewpoint: 21°C
Heat Index: 23°C
Wind Chill: 23°C
Civil Twilight: 5:48 AM GMT-5 Moon Phase:
Waxing Crescent Moon
Sunrise: 6:11 AM GMT-5
Sunset: 5:36 PM GMT-5
Civil Twilight: 5:59 PM GMT-5
Forecast for Nassau Airport, Bahamas:
(Forecast based on TAF for )
0900 AM GMT-5 THU OCT 23 2014
  
MORNING AFTERNOON EVENING OVERNIGHT
Fair Fair Fair Thunder
Storms
ZoneCast:
Dated: 0900 AM GMT-5 THU OCT 23 2014
Morning...Becoming fair with winds from the east at 6 mph.

Afternoon...Fair with winds from the east at 6 mph.

Evening...Fair with winds from the east at 6 mph.

Overnight...Fair with winds from the east at 6 mph. Changing to thunderstorms and overcast skies with winds from the southsoutheast at 17 mph and gusts up to 29 mph.

Original Encoded TAF:
Dated: 0900 AM GMT-5 THU OCT 23 2014
MYNN 230930Z 2312/2412 00000KT 9999 SCT016CB BKN040 OVC080 
     BECMG 2314/2316 09005KT 
     PROB30 
     TEMPO 2318/2322 14010G20KT 4800 TSRA BKN014CB OVC080 
     FM240600Z 15015KTG25KT 1600 TSRA BKN010CB OVC100